地図

経路データ

SID SEASON NUMBER BASIN SUBBASIN NAME ISO_TIME NATURE LAT LON WMO_WIND WMO_PRES WMO_AGENCY TRACK_TYPE DIST2LAND LANDFALL IFLAG USA_AGENCY USA_ATCF_ID USA_LAT USA_LON USA_RECORD USA_STATUS USA_WIND USA_PRES USA_SSHS USA_R34_NE USA_R34_SE USA_R34_SW USA_R34_NW USA_R50_NE USA_R50_SE USA_R50_SW USA_R50_NW USA_R64_NE USA_R64_SE USA_R64_SW USA_R64_NW USA_POCI USA_ROCI USA_RMW USA_EYE TOKYO_LAT TOKYO_LON TOKYO_GRADE TOKYO_WIND TOKYO_PRES TOKYO_R50_DIR TOKYO_R50_LONG TOKYO_R50_SHORT TOKYO_R30_DIR TOKYO_R30_LONG TOKYO_R30_SHORT TOKYO_LAND CMA_LAT CMA_LON CMA_CAT CMA_WIND CMA_PRES HKO_LAT HKO_LON HKO_CAT HKO_WIND HKO_PRES NEWDELHI_LAT NEWDELHI_LON NEWDELHI_GRADE NEWDELHI_WIND NEWDELHI_PRES NEWDELHI_CI NEWDELHI_DP NEWDELHI_POCI REUNION_LAT REUNION_LON REUNION_TYPE REUNION_WIND REUNION_PRES REUNION_TNUM REUNION_CI REUNION_RMW REUNION_R34_NE REUNION_R34_SE REUNION_R34_SW REUNION_R34_NW REUNION_R50_NE REUNION_R50_SE REUNION_R50_SW REUNION_R50_NW REUNION_R64_NE REUNION_R64_SE REUNION_R64_SW REUNION_R64_NW BOM_LAT BOM_LON BOM_TYPE BOM_WIND BOM_PRES BOM_TNUM BOM_CI BOM_RMW BOM_R34_NE BOM_R34_SE BOM_R34_SW BOM_R34_NW BOM_R50_NE BOM_R50_SE BOM_R50_SW BOM_R50_NW BOM_R64_NE BOM_R64_SE BOM_R64_SW BOM_R64_NW BOM_ROCI BOM_POCI BOM_EYE BOM_POS_METHOD BOM_PRES_METHOD NADI_LAT NADI_LON NADI_CAT NADI_WIND NADI_PRES WELLINGTON_LAT WELLINGTON_LON WELLINGTON_WIND WELLINGTON_PRES DS824_LAT DS824_LON DS824_STAGE DS824_WIND DS824_PRES TD9636_LAT TD9636_LON TD9636_STAGE TD9636_WIND TD9636_PRES TD9635_LAT TD9635_LON TD9635_WIND TD9635_PRES TD9635_ROCI NEUMANN_LAT NEUMANN_LON NEUMANN_CLASS NEUMANN_WIND NEUMANN_PRES MLC_LAT MLC_LON MLC_CLASS MLC_WIND MLC_PRES USA_GUST BOM_GUST BOM_GUST_PER REUNION_GUST REUNION_GUST_PER USA_SEAHGT USA_SEARAD_NE USA_SEARAD_SE USA_SEARAD_SW USA_SEARAD_NW STORM_SPEED STORM_DIR
1924229N11305 1924 27 NA NA NOT_NAMED 1924-08-16 06:00:00 TS 10.5000 -54.6000 25 hurdat_atl main 515 506 O_____________ hurdat_atl AL031924 10.5000 -54.6000 TD 25 -1 14 290
1924229N11305 1924 27 NA NA NOT_NAMED 1924-08-16 09:00:00 TS 10.7428 -55.2898 main 506 470 P_____________ AL031924 10.7428 -55.2898 TD 25 -1 15 290
1924229N11305 1924 27 NA NA NOT_NAMED 1924-08-16 12:00:00 TS 11.0000 -56.0000 25 hurdat_atl main 470 444 O_____________ hurdat_atl AL031924 11.0000 -56.0000 TD 25 -1 15 291
1924229N11305 1924 27 NA NA NOT_NAMED 1924-08-16 15:00:00 TS 11.2849 -56.7426 main 447 395 P_____________ AL031924 11.2849 -56.7426 TD 25 -1 16 292
1924229N11305 1924 27 NA NA NOT_NAMED 1924-08-16 18:00:00 TS 11.6000 -57.5000 25 hurdat_atl main 395 333 O_____________ hurdat_atl AL031924 11.6000 -57.5000 TD 25 -1 16 294
1924229N11305 1924 27 NA NA NOT_NAMED 1924-08-16 21:00:00 TS 11.9424 -58.2576 main 323 282 P_____________ AL031924 11.9424 -58.2576 TD 27 -1 16 295
1924229N11305 1924 27 NA NA NOT_NAMED 1924-08-17 00:00:00 TS 12.3000 -59.0000 30 hurdat_atl main 282 255 O_____________ hurdat_atl AL031924 12.3000 -59.0000 TD 30 -1 16 296
1924229N11305 1924 27 NA CS NOT_NAMED 1924-08-17 03:00:00 TS 12.6424 -59.7302 main 255 254 P_____________ AL031924 12.6424 -59.7302 TD 30 -1 15 297
1924229N11305 1924 27 NA CS NOT_NAMED 1924-08-17 06:00:00 TS 13.0000 -60.4000 30 hurdat_atl main 265 263 O_____________ hurdat_atl AL031924 13.0000 -60.4000 TD 30 -1 15 302
1924229N11305 1924 27 NA CS NOT_NAMED 1924-08-17 09:00:00 TS 13.3998 -60.9951 main 302 302 P_____________ AL031924 13.3998 -60.9951 TD 30 -1 13 307
1924229N11305 1924 27 NA CS NOT_NAMED 1924-08-17 12:00:00 TS 13.8000 -61.5000 30 hurdat_atl main 347 347 O_____________ hurdat_atl AL031924 13.8000 -61.5000 TD 30 -1 12 310
1924229N11305 1924 27 NA CS NOT_NAMED 1924-08-17 15:00:00 TS 14.1574 -61.9377 main 392 392 P_____________ AL031924 14.1574 -61.9377 TD 30 -1 10 312
1924229N11305 1924 27 NA CS NOT_NAMED 1924-08-17 18:00:00 TS 14.5000 -62.3000 30 hurdat_atl main 425 425 O_____________ hurdat_atl AL031924 14.5000 -62.3000 TD 30 -1 10 316
1924229N11305 1924 27 NA CS NOT_NAMED 1924-08-17 21:00:00 TS 14.8424 -62.6152 main 459 440 P_____________ AL031924 14.8424 -62.6152 TD 30 -1 9 320
1924229N11305 1924 27 NA CS NOT_NAMED 1924-08-18 00:00:00 TS 15.2000 -62.9000 30 hurdat_atl main 440 385 O_____________ hurdat_atl AL031924 15.2000 -62.9000 TD 30 -1 9 323
1924229N11305 1924 27 NA CS NOT_NAMED 1924-08-18 03:00:00 TS 15.5925 -63.2075 main 385 331 P_____________ AL031924 15.5925 -63.2075 TD 30 -1 10 324
1924229N11305 1924 27 NA CS NOT_NAMED 1924-08-18 06:00:00 TS 16.0000 -63.5000 30 hurdat_atl main 331 285 O_____________ hurdat_atl AL031924 16.0000 -63.5000 TD 30 -1 10 327
1924229N11305 1924 27 NA CS NOT_NAMED 1924-08-18 09:00:00 TS 16.3999 -63.7502 main 277 230 P_____________ AL031924 16.3999 -63.7502 TD 30 -1 9 329
1924229N11305 1924 27 NA CS NOT_NAMED 1924-08-18 12:00:00 TS 16.8000 -64.0000 30 hurdat_atl main 230 177 O_____________ hurdat_atl AL031924 16.8000 -64.0000 TD 30 -1 9 327
1924229N11305 1924 27 NA CS NOT_NAMED 1924-08-18 15:00:00 TS 17.1925 -64.2852 main 177 125 P_____________ AL031924 17.1925 -64.2852 TD 32 -1 10 324
1924229N11305 1924 27 NA CS NOT_NAMED 1924-08-18 18:00:00 TS 17.6000 -64.6000 35 hurdat_atl main 125 77 O_____________ hurdat_atl AL031924 17.6000 -64.6000 TS 35 0 11 324
1924229N11305 1924 27 NA CS NOT_NAMED 1924-08-18 21:00:00 TS 18.0425 -64.9426 main 77 31 P_____________ AL031924 18.0425 -64.9426 TS 37 0 11 324
1924229N11305 1924 27 NA CS NOT_NAMED 1924-08-19 00:00:00 TS 18.5000 -65.3000 40 hurdat_atl main 33 30 O_____________ hurdat_atl AL031924 18.5000 -65.3000 TS 40 0 11 324
1924229N11305 1924 27 NA NA NOT_NAMED 1924-08-19 03:00:00 TS 18.9574 -65.6501 main 67 67 P_____________ AL031924 18.9574 -65.6501 TS 40 0 11 324
1924229N11305 1924 27 NA NA NOT_NAMED 1924-08-19 06:00:00 TS 19.4000 -66.0000 40 hurdat_atl main 111 111 O_____________ hurdat_atl AL031924 19.4000 -66.0000 TS 40 0 11 322
1924229N11305 1924 27 NA NA NOT_NAMED 1924-08-19 09:00:00 TS 19.8075 -66.3577 main 156 156 P_____________ AL031924 19.8075 -66.3577 TS 42 0 10 321
1924229N11305 1924 27 NA NA NOT_NAMED 1924-08-19 12:00:00 TS 20.2000 -66.7000 45 hurdat_atl main 201 201 O_____________ hurdat_atl AL031924 20.2000 -66.7000 TS 45 0 10 323
1924229N11305 1924 27 NA NA NOT_NAMED 1924-08-19 15:00:00 TS 20.6074 -67.0077 main 246 246 P_____________ AL031924 20.6074 -67.0077 TS 47 0 10 325
1924229N11305 1924 27 NA NA NOT_NAMED 1924-08-19 18:00:00 TS 21.0000 -67.3000 50 hurdat_atl main 281 281 O_____________ hurdat_atl AL031924 21.0000 -67.3000 TS 50 0 9 323
1924229N11305 1924 27 NA NA NOT_NAMED 1924-08-19 21:00:00 TS 21.3499 -67.6002 main 285 285 P_____________ AL031924 21.3499 -67.6002 TS 52 0 9 321
1924229N11305 1924 27 NA NA NOT_NAMED 1924-08-20 00:00:00 TS 21.7000 -67.9000 55 hurdat_atl main 305 305 O_____________ hurdat_atl AL031924 21.7000 -67.9000 TS 55 0 9 324
1924229N11305 1924 27 NA NA NOT_NAMED 1924-08-20 03:00:00 TS 22.0999 -68.1926 main 333 333 P_____________ AL031924 22.0999 -68.1926 TS 57 0 10 325
1924229N11305 1924 27 NA NA NOT_NAMED 1924-08-20 06:00:00 TS 22.5000 -68.5000 60 hurdat_atl main 359 359 O_____________ hurdat_atl AL031924 22.5000 -68.5000 TS 60 0 10 322
1924229N11305 1924 27 NA NA NOT_NAMED 1924-08-20 09:00:00 TS 22.8499 -68.8279 main 378 378 P_____________ AL031924 22.8499 -68.8279 TS 60 0 10 317
1924229N11305 1924 27 NA NA NOT_NAMED 1924-08-20 12:00:00 TS 23.2000 -69.2000 60 hurdat_atl main 406 406 O_____________ hurdat_atl AL031924 23.2000 -69.2000 TS 60 0 10 315
1924229N11305 1924 27 NA NA NOT_NAMED 1924-08-20 15:00:00 TS 23.5774 -69.6204 main 437 431 P_____________ AL031924 23.5774 -69.6204 TS 60 0 12 314
1924229N11305 1924 27 NA NA NOT_NAMED 1924-08-20 18:00:00 TS 24.0000 -70.1000 60 hurdat_atl main 431 428 O_____________ hurdat_atl AL031924 24.0000 -70.1000 TS 60 0 13 314
1924229N11305 1924 27 NA NA NOT_NAMED 1924-08-20 21:00:00 TS 24.4925 -70.6424 main 443 437 P_____________ AL031924 24.4925 -70.6424 TS 62 0 14 315
1924229N11305 1924 27 NA NA NOT_NAMED 1924-08-21 00:00:00 TS 25.0000 -71.2000 65 hurdat_atl main 462 462 O_____________ hurdat_atl AL031924 25.0000 -71.2000 HU 65 1 14 315
1924229N11305 1924 27 NA NA NOT_NAMED 1924-08-21 03:00:00 TS 25.4648 -71.7154 main 498 495 P_____________ AL031924 25.4648 -71.7154 HU 67 1 13 315
1924229N11305 1924 27 NA NA NOT_NAMED 1924-08-21 06:00:00 TS 25.9000 -72.2000 70 hurdat_atl main 531 530 O_____________ hurdat_atl AL031924 25.9000 -72.2000 HU 70 1 12 315
1924229N11305 1924 27 NA NA NOT_NAMED 1924-08-21 09:00:00 TS 26.3225 -72.6801 main 540 520 P_____________ AL031924 26.3225 -72.6801 HU 72 1 11 315
1924229N11305 1924 27 NA NA NOT_NAMED 1924-08-21 12:00:00 TS 26.7000 -73.1000 75 hurdat_atl main 520 505 O_____________ hurdat_atl AL031924 26.7000 -73.1000 HU 75 1 10 317
1924229N11305 1924 27 NA NA NOT_NAMED 1924-08-21 15:00:00 TS 27.0373 -73.4303 main 505 494 P_____________ AL031924 27.0373 -73.4303 HU 77 1 8 318
1924229N11305 1924 27 NA NA NOT_NAMED 1924-08-21 18:00:00 TS 27.3000 -73.7000 80 hurdat_atl main 494 480 O_____________ hurdat_atl AL031924 27.3000 -73.7000 HU 80 1 7 312
1924229N11305 1924 27 NA NA NOT_NAMED 1924-08-21 21:00:00 TS 27.4725 -73.9727 main 480 470 P_____________ AL031924 27.4725 -73.9727 HU 82 1 5 304
1924229N11305 1924 27 NA NA NOT_NAMED 1924-08-22 00:00:00 TS 27.6000 -74.2000 85 hurdat_atl main 470 462 O_____________ hurdat_atl AL031924 27.6000 -74.2000 HU 85 2 5 310
1924229N11305 1924 27 NA NA NOT_NAMED 1924-08-22 03:00:00 TS 27.7649 -74.3650 main 468 467 P_____________ AL031924 27.7649 -74.3650 HU 87 2 4 319
1924229N11305 1924 27 NA NA NOT_NAMED 1924-08-22 06:00:00 TS 27.9000 -74.5000 90 hurdat_atl main 467 460 O_____________ hurdat_atl AL031924 27.9000 -74.5000 HU 90 2 3 308
1924229N11305 1924 27 NA NA NOT_NAMED 1924-08-22 09:00:00 TS 27.9650 -74.6576 main 460 453 P_____________ AL031924 27.9650 -74.6576 HU 92 2 3 291
1924229N11305 1924 27 NA NA NOT_NAMED 1924-08-22 12:00:00 TS 28.0000 -74.8000 95 hurdat_atl main 453 446 O_____________ hurdat_atl AL031924 28.0000 -74.8000 HU 95 2 2 292
1924229N11305 1924 27 NA NA NOT_NAMED 1924-08-22 15:00:00 TS 28.0500 -74.9000 main 446 446 P_____________ AL031924 28.0500 -74.9000 HU 97 3 2 300
1924229N11305 1924 27 NA NA NOT_NAMED 1924-08-22 18:00:00 TS 28.1000 -75.0000 100 hurdat_atl main 448 441 O_____________ hurdat_atl AL031924 28.1000 -75.0000 HU 100 3 2 298
1924229N11305 1924 27 NA NA NOT_NAMED 1924-08-22 21:00:00 TS 28.1575 -75.1350 main 450 437 P_____________ AL031924 28.1575 -75.1350 HU 100 3 3 291
1924229N11305 1924 27 NA NA NOT_NAMED 1924-08-23 00:00:00 TS 28.2000 -75.3000 100 hurdat_atl main 437 425 O_____________ hurdat_atl AL031924 28.2000 -75.3000 HU 100 3 3 278
1924229N11305 1924 27 NA NA NOT_NAMED 1924-08-23 03:00:00 TS 28.2000 -75.4851 main 425 414 P_____________ AL031924 28.2000 -75.4851 HU 102 3 4 270
1924229N11305 1924 27 NA NA NOT_NAMED 1924-08-23 06:00:00 TS 28.2000 -75.7000 105 hurdat_atl main 414 404 O_____________ hurdat_atl AL031924 28.2000 -75.7000 HU 105 3 4 277
1924229N11305 1924 27 NA NA NOT_NAMED 1924-08-23 09:00:00 TS 28.2500 -75.9499 main 413 399 P_____________ AL031924 28.2500 -75.9499 HU 105 3 5 283
1924229N11305 1924 27 NA NA NOT_NAMED 1924-08-23 12:00:00 TS 28.3000 -76.2000 105 hurdat_atl main 399 391 O_____________ hurdat_atl AL031924 28.3000 -76.2000 HU 105 3 4 279
1924229N11305 1924 27 NA NA NOT_NAMED 1924-08-23 15:00:00 TS 28.3149 -76.4075 main 391 373 P_____________ AL031924 28.3149 -76.4075 HU 105 3 4 270
1924229N11305 1924 27 NA NA NOT_NAMED 1924-08-23 18:00:00 TS 28.3000 -76.6000 105 hurdat_atl main 373 355 O_____________ hurdat_atl AL031924 28.3000 -76.6000 HU 105 3 4 260
1924229N11305 1924 27 NA NA NOT_NAMED 1924-08-23 21:00:00 TS 28.2500 -76.8076 main 355 333 P_____________ AL031924 28.2500 -76.8076 HU 105 3 4 254
1924229N11305 1924 27 NA NA NOT_NAMED 1924-08-24 00:00:00 TS 28.2000 -77.0000 105 hurdat_atl main 333 315 O_____________ hurdat_atl AL031924 28.2000 -77.0000 HU 105 3 3 260
1924229N11305 1924 27 NA NA NOT_NAMED 1924-08-24 03:00:00 TS 28.1925 -77.1650 main 315 306 P_____________ AL031924 28.1925 -77.1650 HU 105 3 3 270
1924229N11305 1924 27 NA NA NOT_NAMED 1924-08-24 06:00:00 TS 28.2000 -77.3000 105 hurdat_atl main 306 297 O_____________ hurdat_atl AL031924 28.2000 -77.3000 HU 105 3 2 264
1924229N11305 1924 27 NA NA NOT_NAMED 1924-08-24 09:00:00 TS 28.1700 -77.4076 main 297 288 P_____________ AL031924 28.1700 -77.4076 HU 102 3 2 270
1924229N11305 1924 27 NA NA NOT_NAMED 1924-08-24 12:00:00 TS 28.2000 -77.5000 100 hurdat_atl main 288 283 O_____________ hurdat_atl AL031924 28.2000 -77.5000 HU 100 3 2 316
1924229N11305 1924 27 NA NA NOT_NAMED 1924-08-24 15:00:00 TS 28.3400 -77.6000 main 283 273 P_____________ AL031924 28.3400 -77.6000 HU 97 3 4 336
1924229N11305 1924 27 NA NA NOT_NAMED 1924-08-24 18:00:00 TS 28.6000 -77.7000 95 hurdat_atl main 273 264 O_____________ hurdat_atl AL031924 28.6000 -77.7000 HU 95 2 7 342
1924229N11305 1924 27 NA NA NOT_NAMED 1924-08-24 21:00:00 TS 28.9700 -77.8296 main 268 261 P_____________ AL031924 28.9700 -77.8296 HU 92 2 8 347
1924229N11305 1924 27 NA NA NOT_NAMED 1924-08-25 00:00:00 TS 29.4000 -77.9000 90 hurdat_atl main 271 271 O_____________ hurdat_atl AL031924 29.4000 -77.9000 HU 90 2 8 357
1924229N11305 1924 27 NA NA NOT_NAMED 1924-08-25 03:00:00 TS 29.7848 -77.8672 main 290 290 P_____________ AL031924 29.7848 -77.8672 HU 87 2 8 12
1924229N11305 1924 27 NA NA NOT_NAMED 1924-08-25 06:00:00 TS 30.2000 -77.7000 85 hurdat_atl main 330 327 O_____________ hurdat_atl AL031924 30.2000 -77.7000 HU 85 2 10 26
1924229N11305 1924 27 NA NA NOT_NAMED 1924-08-25 09:00:00 TS 30.6477 -77.3873 main 327 302 P_____________ AL031924 30.6477 -77.3873 HU 85 2 12 31
1924229N11305 1924 27 NA NA NOT_NAMED 1924-08-25 12:00:00 TS 31.2000 -77.0000 85 969 hurdat_atl main 302 253 O_____________ hurdat_atl AL031924 31.2000 -77.0000 HU 85 969 2 14 27
1924229N11305 1924 27 NA NA NOT_NAMED 1924-08-25 15:00:00 TS 31.8974 -76.6569 main 253 206 P_____________ AL031924 31.8974 -76.6569 HU 87 2 16 22
1924229N11305 1924 27 NA NA NOT_NAMED 1924-08-25 18:00:00 TS 32.7000 -76.3000 90 hurdat_atl main 206 141 O_____________ hurdat_atl AL031924 32.7000 -76.3000 HU 90 2 17 20
1924229N11305 1924 27 NA NA NOT_NAMED 1924-08-25 21:00:00 TS 33.5196 -75.9359 main 144 92 P_____________ AL031924 33.5196 -75.9359 HU 90 2 18 21
1924229N11305 1924 27 NA NA NOT_NAMED 1924-08-26 00:00:00 TS 34.4000 -75.5000 90 hurdat_atl main 91 71 O_____________ hurdat_atl AL031924 34.4000 -75.5000 HU 90 2 20 25
1924229N11305 1924 27 NA NA NOT_NAMED 1924-08-26 03:00:00 TS 35.3124 -74.9437 main 77 66 P_____________ AL031924 35.3124 -74.9437 HU 90 2 21 27
1924229N11305 1924 27 NA NA NOT_NAMED 1924-08-26 06:00:00 TS 36.3000 -74.3000 90 963 hurdat_atl main 121 121 O_____________ hurdat_atl AL031924 36.3000 -74.3000 HU 90 963 2 23 26
1924229N11305 1924 27 NA NA NOT_NAMED 1924-08-26 09:00:00 TS 37.3604 -73.6992 main 158 154 P_____________ AL031924 37.3604 -73.6992 HU 87 964 2 25 27
1924229N11305 1924 27 NA NA NOT_NAMED 1924-08-26 12:00:00 TS 38.5000 -72.9000 85 hurdat_atl main 164 149 I_____________ hurdat_atl AL031924 38.5000 -72.9000 HU 85 965 2 28 34
1924229N11305 1924 27 NA NA NOT_NAMED 1924-08-26 15:00:00 TS 39.6700 -71.7247 main 144 79 P_____________ AL031924 39.6700 -71.7247 HU 82 966 1 31 40
1924229N11305 1924 27 NA NA NOT_NAMED 1924-08-26 18:00:00 TS 40.9000 -70.3000 80 968 hurdat_atl main 74 33 O_____________ hurdat_atl AL031924 40.9000 -70.3000 HU 80 968 1 33 41
1924229N11305 1924 27 NA NA NOT_NAMED 1924-08-26 21:00:00 TS 42.1664 -68.8527 main 100 98 P_____________ AL031924 42.1664 -68.8527 HU 77 1 35 41
1924229N11305 1924 27 NA NA NOT_NAMED 1924-08-27 00:00:00 ET 43.5000 -67.2000 75 hurdat_atl main 86 0 O_____________ hurdat_atl AL031924 43.5000 -67.2000 EX 75 -4 38 44
1924229N11305 1924 27 NA NA NOT_NAMED 1924-08-27 03:00:00 ET 44.8957 -65.1669 main 0 0 P_____________ AL031924 44.8957 -65.1669 EX 70 -4 40 46
1924229N11305 1924 27 NA NA NOT_NAMED 1924-08-27 06:00:00 ET 46.3000 -63.1000 65 hurdat_atl main 0 0 O_____________ hurdat_atl AL031924 46.3000 -63.1000 EX 65 -4 38 43
1924229N11305 1924 27 NA NA NOT_NAMED 1924-08-27 09:00:00 ET 47.7028 -61.4167 main 103 67 P_____________ AL031924 47.7028 -61.4167 EX 62 -4 35 39
1924229N11305 1924 27 NA NA NOT_NAMED 1924-08-27 12:00:00 ET 49.0000 -59.8000 60 hurdat_atl main 67 18 O_____________ hurdat_atl AL031924 49.0000 -59.8000 EX 60 -4 33 44
1924229N11305 1924 27 NA NA NOT_NAMED 1924-08-27 15:00:00 ET 50.0897 -57.9028 main 18 0 P_____________ AL031924 50.0897 -57.9028 EX 57 -4 31 51
1924229N11305 1924 27 NA NA NOT_NAMED 1924-08-27 18:00:00 ET 51.0000 -56.0000 55 hurdat_atl main 0 0 O_____________ hurdat_atl AL031924 51.0000 -56.0000 EX 55 -4 28 53
1924229N11305 1924 27 NA NA NOT_NAMED 1924-08-27 21:00:00 ET 51.7822 -54.2871 main 88 88 P_____________ AL031924 51.7822 -54.2871 EX 52 -4 26 55
1924229N11305 1924 27 NA NA NOT_NAMED 1924-08-28 00:00:00 ET 52.5000 -52.6000 50 hurdat_atl main 202 202 O_____________ hurdat_atl AL031924 52.5000 -52.6000 EX 50 -4 26 56
1924229N11305 1924 27 NA NA NOT_NAMED 1924-08-28 03:00:00 ET 53.2641 -50.7127 main 337 337 P_____________ AL031924 53.2641 -50.7127 EX 47 -4 27 57
1924229N11305 1924 27 NA NA NOT_NAMED 1924-08-28 06:00:00 ET 54.0000 -48.8000 45 hurdat_atl main 465 465 O_____________ hurdat_atl AL031924 54.0000 -48.8000 EX 45 -4 26 57
1924229N11305 1924 27 NA NA NOT_NAMED 1924-08-28 09:00:00 ET 54.6738 -46.9785 main 592 521 P_____________ AL031924 54.6738 -46.9785 EX 45 -4 24 58
1924229N11305 1924 27 NA NA NOT_NAMED 1924-08-28 12:00:00 ET 55.3000 -45.2000 45 hurdat_atl main 520 O_____________ hurdat_atl AL031924 55.3000 -45.2000 EX 45 -4 24 58

IBTrACS Databaseについて

本データベースは、米国NOAAが公開する1842年以降の世界の熱帯低気圧のベストトラックデータアーカイブInternational Best Track Archive for Climate Stewardship (IBTrACS)を、ウェブで閲覧しやすい形式に変換したものです。

最終更新日:2021-10-08